sensor_id;sensor_type;location;lat;lon;timestamp;pressure;altitude;pressure_sealevel;temperature;humidity
11672;BME280;5892;43.412;24.612;2022-12-19T00:01:14;102172.94;;;1.96;100.00
11672;BME280;5892;43.412;24.612;2022-12-19T00:03:42;102177.91;;;1.99;100.00
11672;BME280;5892;43.412;24.612;2022-12-19T00:06:10;102176.88;;;1.94;100.00
11672;BME280;5892;43.412;24.612;2022-12-19T00:08:39;102205.38;;;2.09;100.00
11672;BME280;5892;43.412;24.612;2022-12-19T00:11:07;102178.13;;;1.91;100.00
11672;BME280;5892;43.412;24.612;2022-12-19T00:13:35;102213.91;;;1.93;100.00
11672;BME280;5892;43.412;24.612;2022-12-19T00:16:03;102168.75;;;1.61;100.00
11672;BME280;5892;43.412;24.612;2022-12-19T00:18:30;102225.97;;;1.97;100.00
11672;BME280;5892;43.412;24.612;2022-12-19T00:20:58;102213.91;;;1.93;100.00
11672;BME280;5892;43.412;24.612;2022-12-19T00:23:27;102229.94;;;2.08;100.00
11672;BME280;5892;43.412;24.612;2022-12-19T00:26:06;102172.72;;;1.78;100.00
11672;BME280;5892;43.412;24.612;2022-12-19T00:28:33;102223.91;;;2.06;100.00
11672;BME280;5892;43.412;24.612;2022-12-19T00:31:00;102141.94;;;1.46;100.00
11672;BME280;5892;43.412;24.612;2022-12-19T00:33:27;102215.56;;;2.01;100.00
11672;BME280;5892;43.412;24.612;2022-12-19T00:35:56;102210.59;;;1.98;100.00
11672;BME280;5892;43.412;24.612;2022-12-19T00:38:23;102219.31;;;1.87;100.00
11672;BME280;5892;43.412;24.612;2022-12-19T00:40:50;102235.53;;;2.00;100.00
11672;BME280;5892;43.412;24.612;2022-12-19T00:43:19;102239.50;;;1.97;100.00
11672;BME280;5892;43.412;24.612;2022-12-19T00:45:45;102248.41;;;1.85;100.00
11672;BME280;5892;43.412;24.612;2022-12-19T00:48:12;102243.00;;;1.72;100.00
11672;BME280;5892;43.412;24.612;2022-12-19T00:50:39;102226.13;;;1.63;100.00
11672;BME280;5892;43.412;24.612;2022-12-19T00:53:06;102245.09;;;1.76;100.00
11672;BME280;5892;43.412;24.612;2022-12-19T00:55:36;102248.84;;;1.88;100.00
11672;BME280;5892;43.412;24.612;2022-12-19T00:58:03;102245.09;;;1.89;100.00
11672;BME280;5892;43.412;24.612;2022-12-19T01:00:31;102246.75;;;1.90;100.00
11672;BME280;5892;43.412;24.612;2022-12-19T01:02:58;102237.81;;;1.96;100.00
11672;BME280;5892;43.412;24.612;2022-12-19T01:05:25;102245.53;;;1.93;100.00
11672;BME280;5892;43.412;24.612;2022-12-19T01:07:52;102233.03;;;1.85;100.00
11672;BME280;5892;43.412;24.612;2022-12-19T01:10:19;102243.44;;;2.01;100.00
11672;BME280;5892;43.412;24.612;2022-12-19T01:12:46;102244.91;;;2.04;100.00
11672;BME280;5892;43.412;24.612;2022-12-19T01:15:14;102250.13;;;1.99;100.00
11672;BME280;5892;43.412;24.612;2022-12-19T01:17:43;102237.63;;;1.98;100.00
11672;BME280;5892;43.412;24.612;2022-12-19T01:20:11;102241.59;;;2.08;100.00
11672;BME280;5892;43.412;24.612;2022-12-19T01:22:38;102245.34;;;2.14;100.00
11672;BME280;5892;43.412;24.612;2022-12-19T01:27:45;102092.41;;;1.06;100.00
11672;BME280;5892;43.412;24.612;2022-12-19T01:30:12;102229.28;;;1.86;100.00
11672;BME280;5892;43.412;24.612;2022-12-19T01:32:39;102248.66;;;2.03;100.00
11672;BME280;5892;43.412;24.612;2022-12-19T01:35:08;102246.56;;;2.05;100.00
11672;BME280;5892;43.412;24.612;2022-12-19T01:37:35;102253.03;;;1.97;100.00
11672;BME280;5892;43.412;24.612;2022-12-19T01:40:02;102185.59;;;1.69;100.00
11672;BME280;5892;43.412;24.612;2022-12-19T01:42:33;102213.06;;;1.86;100.00
11672;BME280;5892;43.412;24.612;2022-12-19T01:45:22;102235.53;;;2.00;100.00
11672;BME280;5892;43.412;24.612;2022-12-19T01:47:53;102230.13;;;1.93;100.00
11672;BME280;5892;43.412;24.612;2022-12-19T01:50:26;102250.31;;;1.97;100.00
11672;BME280;5892;43.412;24.612;2022-12-19T01:52:56;102238.03;;;2.01;100.00
11672;BME280;5892;43.412;24.612;2022-12-19T01:55:24;102194.34;;;1.65;100.00
11672;BME280;5892;43.412;24.612;2022-12-19T01:57:52;102238.66;;;1.97;100.00
11672;BME280;5892;43.412;24.612;2022-12-19T02:00:20;102239.69;;;1.89;100.00
11672;BME280;5892;43.412;24.612;2022-12-19T02:02:51;102237.56;;;1.65;100.00
11672;BME280;5892;43.412;24.612;2022-12-19T02:05:19;102235.09;;;1.70;100.00
11672;BME280;5892;43.412;24.612;2022-12-19T02:07:48;102242.19;;;1.78;100.00
11672;BME280;5892;43.412;24.612;2022-12-19T02:10:15;102234.66;;;1.66;100.00
11672;BME280;5892;43.412;24.612;2022-12-19T02:12:44;102238.81;;;1.69;100.00
11672;BME280;5892;43.412;24.612;2022-12-19T02:15:13;102242.97;;;1.78;100.00
11672;BME280;5892;43.412;24.612;2022-12-19T02:17:52;102233.63;;;1.74;100.00
11672;BME280;5892;43.412;24.612;2022-12-19T02:26:57;102240.50;;;1.77;100.00
11672;BME280;5892;43.412;24.612;2022-12-19T02:32:31;102247.78;;;1.76;100.00
11672;BME280;5892;43.412;24.612;2022-12-19T02:35:05;102247.34;;;1.79;100.00
11672;BME280;5892;43.412;24.612;2022-12-19T02:37:38;102258.00;;;1.87;100.00
11672;BME280;5892;43.412;24.612;2022-12-19T02:40:12;102250.28;;;1.78;100.00
11672;BME280;5892;43.412;24.612;2022-12-19T02:42:42;102195.34;;;1.44;100.00
11672;BME280;5892;43.412;24.612;2022-12-19T02:45:13;102257.59;;;1.97;100.00
11672;BME280;5892;43.412;24.612;2022-12-19T02:47:42;102203.06;;;1.67;100.00
11672;BME280;5892;43.412;24.612;2022-12-19T02:50:11;102259.03;;;1.86;100.00
11672;BME280;5892;43.412;24.612;2022-12-19T02:52:44;102232.19;;;1.72;100.00
11672;BME280;5892;43.412;24.612;2022-12-19T02:55:14;102246.97;;;1.89;100.00
11672;BME280;5892;43.412;24.612;2022-12-19T02:57:52;102251.75;;;1.87;100.00
11672;BME280;5892;43.412;24.612;2022-12-19T03:00:24;102251.13;;;1.85;100.00
11672;BME280;5892;43.412;24.612;2022-12-19T03:02:59;102231.75;;;1.68;100.00
11672;BME280;5892;43.412;24.612;2022-12-19T03:05:36;102174.50;;;1.25;100.00
11672;BME280;5892;43.412;24.612;2022-12-19T03:08:08;102219.28;;;1.67;100.00
11672;BME280;5892;43.412;24.612;2022-12-19T03:10:40;102149.81;;;1.41;100.00
11672;BME280;5892;43.412;24.612;2022-12-19T03:13:12;102220.16;;;1.87;100.00
11672;BME280;5892;43.412;24.612;2022-12-19T03:15:43;102211.00;;;1.88;100.00
11672;BME280;5892;43.412;24.612;2022-12-19T03:18:12;102169.53;;;1.28;100.00
11672;BME280;5892;43.412;24.612;2022-12-19T03:20:44;102242.16;;;1.84;100.00
11672;BME280;5892;43.412;24.612;2022-12-19T03:23:13;102207.03;;;1.71;100.00
11672;BME280;5892;43.412;24.612;2022-12-19T03:25:44;102233.03;;;1.92;100.00
11672;BME280;5892;43.412;24.612;2022-12-19T03:28:18;102245.94;;;1.96;100.00
11672;BME280;5892;43.412;24.612;2022-12-19T03:30:48;102246.97;;;1.95;100.00
11672;BME280;5892;43.412;24.612;2022-12-19T03:33:18;102225.75;;;1.73;100.00
11672;BME280;5892;43.412;24.612;2022-12-19T03:35:48;102262.38;;;2.01;100.00
11672;BME280;5892;43.412;24.612;2022-12-19T03:38:17;102226.78;;;1.85;100.00
11672;BME280;5892;43.412;24.612;2022-12-19T03:40:46;102263.00;;;1.97;100.00
11672;BME280;5892;43.412;24.612;2022-12-19T03:44:50;102269.84;;;1.99;100.00
11672;BME280;5892;43.412;24.612;2022-12-19T03:46:23;102273.41;;;2.06;100.00
11672;BME280;5892;43.412;24.612;2022-12-19T03:48:54;102266.75;;;2.02;100.00
11672;BME280;5892;43.412;24.612;2022-12-19T03:51:29;102258.38;;;1.84;100.00
11672;BME280;5892;43.412;24.612;2022-12-19T03:54:00;102251.34;;;1.96;100.00
11672;BME280;5892;43.412;24.612;2022-12-19T03:56:33;102286.50;;;2.03;100.00
11672;BME280;5892;43.412;24.612;2022-12-19T03:59:07;102197.22;;;1.50;100.00
11672;BME280;5892;43.412;24.612;2022-12-19T04:01:35;102284.66;;;2.03;100.00
11672;BME280;5892;43.412;24.612;2022-12-19T04:04:06;102308.13;;;2.09;100.00
11672;BME280;5892;43.412;24.612;2022-12-19T04:06:34;102249.47;;;1.90;100.00
11672;BME280;5892;43.412;24.612;2022-12-19T04:09:02;102283.81;;;2.16;100.00
11672;BME280;5892;43.412;24.612;2022-12-19T04:11:33;102293.78;;;2.16;100.00
11672;BME280;5892;43.412;24.612;2022-12-19T04:14:07;102287.34;;;2.10;100.00
11672;BME280;5892;43.412;24.612;2022-12-19T04:16:39;102260.94;;;1.99;100.00
11672;BME280;5892;43.412;24.612;2022-12-19T04:19:13;102282.09;;;1.89;100.00
11672;BME280;5892;43.412;24.612;2022-12-19T04:21:46;102304.59;;;1.96;100.00
11672;BME280;5892;43.412;24.612;2022-12-19T04:24:20;102292.13;;;2.08;100.00
11672;BME280;5892;43.412;24.612;2022-12-19T04:26:50;102292.53;;;2.05;100.00
11672;BME280;5892;43.412;24.612;2022-12-19T04:29:18;102297.94;;;2.05;100.00
11672;BME280;5892;43.412;24.612;2022-12-19T04:31:45;102305.22;;;1.91;100.00
11672;BME280;5892;43.412;24.612;2022-12-19T04:34:16;102285.44;;;1.84;100.00
11672;BME280;5892;43.412;24.612;2022-12-19T04:36:45;102328.31;;;2.07;100.00
11672;BME280;5892;43.412;24.612;2022-12-19T04:39:12;102330.19;;;2.06;100.00
11672;BME280;5892;43.412;24.612;2022-12-19T04:41:39;102316.66;;;1.93;100.00
11672;BME280;5892;43.412;24.612;2022-12-19T04:44:06;102290.84;;;1.78;100.00
11672;BME280;5892;43.412;24.612;2022-12-19T04:46:33;102196.56;;;1.35;100.00
11672;BME280;5892;43.412;24.612;2022-12-19T04:49:00;102312.50;;;1.97;100.00
11672;BME280;5892;43.412;24.612;2022-12-19T04:51:28;102312.69;;;1.96;100.00
11672;BME280;5892;43.412;24.612;2022-12-19T04:53:55;102301.88;;;1.96;100.00
11672;BME280;5892;43.412;24.612;2022-12-19T04:56:23;102317.72;;;2.05;100.00
11672;BME280;5892;43.412;24.612;2022-12-19T04:58:55;102318.72;;;1.91;100.00
11672;BME280;5892;43.412;24.612;2022-12-19T05:01:22;102311.22;;;1.80;100.00
11672;BME280;5892;43.412;24.612;2022-12-19T05:03:49;102239.19;;;1.46;100.00
11672;BME280;5892;43.412;24.612;2022-12-19T05:06:18;102335.97;;;1.90;100.00
11672;BME280;5892;43.412;24.612;2022-12-19T05:08:47;102339.75;;;1.96;100.00
11672;BME280;5892;43.412;24.612;2022-12-19T05:11:15;102330.19;;;2.00;100.00
11672;BME280;5892;43.412;24.612;2022-12-19T05:13:42;102335.38;;;2.01;100.00
11672;BME280;5892;43.412;24.612;2022-12-19T05:16:10;102335.41;;;2.08;100.00
11672;BME280;5892;43.412;24.612;2022-12-19T05:18:38;102330.78;;;1.95;100.00
11672;BME280;5892;43.412;24.612;2022-12-19T05:21:05;102335.59;;;2.00;100.00
11672;BME280;5892;43.412;24.612;2022-12-19T05:23:32;102339.78;;;2.09;100.00
11672;BME280;5892;43.412;24.612;2022-12-19T05:26:01;102339.16;;;2.07;100.00
11672;BME280;5892;43.412;24.612;2022-12-19T05:28:29;102311.25;;;1.93;100.00
11672;BME280;5892;43.412;24.612;2022-12-19T05:31:07;102349.16;;;2.20;100.00
11672;BME280;5892;43.412;24.612;2022-12-19T05:33:35;102252.53;;;1.61;100.00
11672;BME280;5892;43.412;24.612;2022-12-19T05:36:04;102336.44;;;2.07;100.00
11672;BME280;5892;43.412;24.612;2022-12-19T05:38:32;102357.47;;;2.11;100.00
11672;BME280;5892;43.412;24.612;2022-12-19T05:41:05;102326.41;;;1.94;100.00
11672;BME280;5892;43.412;24.612;2022-12-19T05:43:34;102359.78;;;2.15;100.00
11672;BME280;5892;43.412;24.612;2022-12-19T05:46:02;102360.41;;;2.23;100.00
11672;BME280;5892;43.412;24.612;2022-12-19T05:48:30;102357.28;;;2.20;100.00
11672;BME280;5892;43.412;24.612;2022-12-19T05:50:57;102357.06;;;2.21;100.00
11672;BME280;5892;43.412;24.612;2022-12-19T05:53:24;102365.16;;;2.21;100.00
11672;BME280;5892;43.412;24.612;2022-12-19T05:56:03;102367.47;;;2.18;100.00
11672;BME280;5892;43.412;24.612;2022-12-19T05:58:30;102370.16;;;2.11;100.00
11672;BME280;5892;43.412;24.612;2022-12-19T06:01:00;102372.44;;;2.07;100.00
11672;BME280;5892;43.412;24.612;2022-12-19T06:03:28;102377.88;;;2.21;100.00
11672;BME280;5892;43.412;24.612;2022-12-19T06:05:54;102371.63;;;2.20;100.00
11672;BME280;5892;43.412;24.612;2022-12-19T06:08:22;102361.63;;;2.14;100.00
11672;BME280;5892;43.412;24.612;2022-12-19T06:10:49;102363.91;;;2.10;100.00
11672;BME280;5892;43.412;24.612;2022-12-19T06:13:17;102383.91;;;2.23;100.00
11672;BME280;5892;43.412;24.612;2022-12-19T06:15:44;102380.78;;;2.26;100.00
11672;BME280;5892;43.412;24.612;2022-12-19T06:18:11;102388.47;;;2.22;100.00
11672;BME280;5892;43.412;24.612;2022-12-19T06:20:37;102374.53;;;2.12;100.00
11672;BME280;5892;43.412;24.612;2022-12-19T06:23:04;102387.25;;;2.25;100.00
11672;BME280;5892;43.412;24.612;2022-12-19T06:25:31;102386.63;;;2.23;100.00
11672;BME280;5892;43.412;24.612;2022-12-19T06:27:58;102388.25;;;2.10;100.00
11672;BME280;5892;43.412;24.612;2022-12-19T06:30:26;102395.75;;;2.08;100.00
11672;BME280;5892;43.412;24.612;2022-12-19T06:32:53;102385.75;;;2.09;100.00
11672;BME280;5892;43.412;24.612;2022-12-19T06:35:20;102394.94;;;2.28;100.00
11672;BME280;5892;43.412;24.612;2022-12-19T06:37:47;102404.72;;;2.22;100.00
11672;BME280;5892;43.412;24.612;2022-12-19T06:40:15;102385.31;;;2.05;100.00
11672;BME280;5892;43.412;24.612;2022-12-19T06:43:02;102410.75;;;2.31;100.00
11672;BME280;5892;43.412;24.612;2022-12-19T06:45:29;102407.41;;;2.16;100.00
11672;BME280;5892;43.412;24.612;2022-12-19T06:47:56;102353.47;;;1.88;100.00
11672;BME280;5892;43.412;24.612;2022-12-19T06:50:23;102398.69;;;2.27;100.00
11672;BME280;5892;43.412;24.612;2022-12-19T06:52:50;102425.31;;;2.23;100.00
11672;BME280;5892;43.412;24.612;2022-12-19T06:55:17;102416.59;;;2.28;100.00
11672;BME280;5892;43.412;24.612;2022-12-19T06:57:44;102423.25;;;2.19;100.00
11672;BME280;5892;43.412;24.612;2022-12-19T07:00:12;102422.63;;;2.23;100.00
11672;BME280;5892;43.412;24.612;2022-12-19T07:02:43;102424.91;;;2.26;100.00
11672;BME280;5892;43.412;24.612;2022-12-19T07:05:11;102434.53;;;2.42;100.00
11672;BME280;5892;43.412;24.612;2022-12-19T07:07:38;102437.88;;;2.44;100.00
11672;BME280;5892;43.412;24.612;2022-12-19T07:10:07;102439.50;;;2.32;100.00
11672;BME280;5892;43.412;24.612;2022-12-19T07:12:34;102433.28;;;2.38;100.00
11672;BME280;5892;43.412;24.612;2022-12-19T07:15:01;102437.81;;;2.31;100.00
11672;BME280;5892;43.412;24.612;2022-12-19T07:17:32;102431.16;;;2.27;100.00
11672;BME280;5892;43.412;24.612;2022-12-19T07:20:00;102445.94;;;2.31;100.00
11672;BME280;5892;43.412;24.612;2022-12-19T07:22:30;102431.50;;;2.10;100.00
11672;BME280;5892;43.412;24.612;2022-12-19T07:24:58;102446.13;;;2.23;100.00
11672;BME280;5892;43.412;24.612;2022-12-19T07:27:26;102454.41;;;2.08;100.00
11672;BME280;5892;43.412;24.612;2022-12-19T07:29:53;102459.00;;;2.21;100.00
11672;BME280;5892;43.412;24.612;2022-12-19T07:32:20;102465.25;;;2.15;100.00
11672;BME280;5892;43.412;24.612;2022-12-19T07:34:47;102468.59;;;2.17;100.00
11672;BME280;5892;43.412;24.612;2022-12-19T07:37:15;102468.19;;;2.26;100.00
11672;BME280;5892;43.412;24.612;2022-12-19T07:39:42;102469.03;;;2.27;100.00
11672;BME280;5892;43.412;24.612;2022-12-19T07:42:09;102434.03;;;2.12;100.00
11672;BME280;5892;43.412;24.612;2022-12-19T07:44:36;102452.13;;;2.11;100.00
11672;BME280;5892;43.412;24.612;2022-12-19T07:47:03;102476.88;;;2.15;100.00
11672;BME280;5892;43.412;24.612;2022-12-19T07:49:30;102470.59;;;2.01;100.00
11672;BME280;5892;43.412;24.612;2022-12-19T07:51:57;102486.03;;;2.07;99.97
11672;BME280;5892;43.412;24.612;2022-12-19T07:54:25;102479.59;;;2.08;98.98
11672;BME280;5892;43.412;24.612;2022-12-19T07:56:52;102466.22;;;2.00;98.55
11672;BME280;5892;43.412;24.612;2022-12-19T07:59:19;102496.88;;;2.21;96.93
11672;BME280;5892;43.412;24.612;2022-12-19T08:01:46;102503.72;;;2.10;96.02
11672;BME280;5892;43.412;24.612;2022-12-19T08:04:13;102503.94;;;2.08;96.38
11672;BME280;5892;43.412;24.612;2022-12-19T08:06:40;102423.25;;;1.71;96.13
11672;BME280;5892;43.412;24.612;2022-12-19T08:09:07;102521.00;;;2.16;97.23
11672;BME280;5892;43.412;24.612;2022-12-19T08:11:35;102514.59;;;2.23;96.09
11672;BME280;5892;43.412;24.612;2022-12-19T08:14:02;102506.94;;;2.33;95.88
11672;BME280;5892;43.412;24.612;2022-12-19T08:16:29;102514.88;;;2.35;94.25
11672;BME280;5892;43.412;24.612;2022-12-19T08:18:56;102508.38;;;2.36;93.98
11672;BME280;5892;43.412;24.612;2022-12-19T08:21:23;102518.97;;;2.31;93.51
11672;BME280;5892;43.412;24.612;2022-12-19T08:23:50;102510.47;;;2.34;93.70
11672;BME280;5892;43.412;24.612;2022-12-19T08:26:18;102501.69;;;2.25;93.60
11672;BME280;5892;43.412;24.612;2022-12-19T08:28:51;102514.22;;;2.33;94.01
11672;BME280;5892;43.412;24.612;2022-12-19T08:31:19;102496.91;;;2.27;94.56
11672;BME280;5892;43.412;24.612;2022-12-19T08:33:48;102499.47;;;2.42;94.15
11672;BME280;5892;43.412;24.612;2022-12-19T08:36:17;102419.56;;;1.85;94.06
11672;BME280;5892;43.412;24.612;2022-12-19T08:38:45;102504.06;;;2.48;94.44
11672;BME280;5892;43.412;24.612;2022-12-19T08:41:12;102440.31;;;2.19;93.05
11672;BME280;5892;43.412;24.612;2022-12-19T08:43:39;102523.25;;;2.53;93.26
11672;BME280;5892;43.412;24.612;2022-12-19T08:46:08;102514.06;;;2.47;94.43
11672;BME280;5892;43.412;24.612;2022-12-19T08:48:35;102511.16;;;2.49;95.02
11672;BME280;5892;43.412;24.612;2022-12-19T08:51:04;102506.38;;;2.58;95.33
11672;BME280;5892;43.412;24.612;2022-12-19T08:53:34;102503.09;;;2.69;94.63
11672;BME280;5892;43.412;24.612;2022-12-19T08:56:04;102507.03;;;2.66;94.19
11672;BME280;5892;43.412;24.612;2022-12-19T08:58:32;102498.28;;;2.51;95.10
11672;BME280;5892;43.412;24.612;2022-12-19T09:00:59;102499.06;;;2.45;95.26
11672;BME280;5892;43.412;24.612;2022-12-19T09:03:28;102491.75;;;2.39;96.14
11672;BME280;5892;43.412;24.612;2022-12-19T09:05:55;102469.50;;;2.43;95.99
11672;BME280;5892;43.412;24.612;2022-12-19T09:08:23;102471.19;;;2.51;96.27
11672;BME280;5892;43.412;24.612;2022-12-19T09:10:57;102473.72;;;2.72;96.67
11672;BME280;5892;43.412;24.612;2022-12-19T09:13:25;102480.41;;;2.70;94.91
11672;BME280;5892;43.412;24.612;2022-12-19T09:15:59;102483.28;;;2.68;95.94
11672;BME280;5892;43.412;24.612;2022-12-19T09:18:27;102425.34;;;2.36;96.05
11672;BME280;5892;43.412;24.612;2022-12-19T09:20:55;102462.03;;;2.59;97.36
11672;BME280;5892;43.412;24.612;2022-12-19T09:23:23;102401.41;;;2.27;97.27
11672;BME280;5892;43.412;24.612;2022-12-19T09:25:51;102428.34;;;2.61;97.24
11672;BME280;5892;43.412;24.612;2022-12-19T09:28:18;102436.38;;;2.41;96.88
11672;BME280;5892;43.412;24.612;2022-12-19T09:30:45;102417.88;;;2.51;97.45
11672;BME280;5892;43.412;24.612;2022-12-19T09:33:20;102439.38;;;2.66;97.51
11672;BME280;5892;43.412;24.612;2022-12-19T09:35:49;102439.56;;;2.58;98.98
11672;BME280;5892;43.412;24.612;2022-12-19T09:38:17;102435.59;;;2.67;98.08
11672;BME280;5892;43.412;24.612;2022-12-19T09:40:51;102403.75;;;2.49;98.48
11672;BME280;5892;43.412;24.612;2022-12-19T09:43:32;102432.91;;;2.80;97.81
11672;BME280;5892;43.412;24.612;2022-12-19T09:46:10;102432.09;;;2.80;98.75
11672;BME280;5892;43.412;24.612;2022-12-19T09:48:40;102426.06;;;2.91;98.54
11672;BME280;5892;43.412;24.612;2022-12-19T09:51:12;102430.84;;;3.09;97.49
11672;BME280;5892;43.412;24.612;2022-12-19T09:53:54;102427.06;;;3.16;96.75
11672;BME280;5892;43.412;24.612;2022-12-19T09:56:27;102436.66;;;3.06;97.46
11672;BME280;5892;43.412;24.612;2022-12-19T09:58:59;102386.88;;;3.00;97.27
11672;BME280;5892;43.412;24.612;2022-12-19T10:01:31;102413.31;;;3.05;97.42
11672;BME280;5892;43.412;24.612;2022-12-19T10:04:04;102413.75;;;3.02;98.39
11672;BME280;5892;43.412;24.612;2022-12-19T10:06:36;102388.34;;;3.03;98.38
11672;BME280;5892;43.412;24.612;2022-12-19T10:09:10;102409.34;;;3.27;98.18
11672;BME280;5892;43.412;24.612;2022-12-19T10:11:50;102401.41;;;3.32;98.03
11672;BME280;5892;43.412;24.612;2022-12-19T10:14:32;102420.56;;;3.50;97.18
11672;BME280;5892;43.412;24.612;2022-12-19T10:17:06;102416.63;;;3.26;97.85
11672;BME280;5892;43.412;24.612;2022-12-19T10:19:57;102421.22;;;3.32;99.10
11672;BME280;5892;43.412;24.612;2022-12-19T10:22:34;102412.91;;;3.27;98.91
11672;BME280;5892;43.412;24.612;2022-12-19T10:25:17;102408.31;;;3.15;99.03
11672;BME280;5892;43.412;24.612;2022-12-19T10:27:52;102400.81;;;3.17;99.83
11672;BME280;5892;43.412;24.612;2022-12-19T10:30:23;102366.25;;;2.79;100.00
11672;BME280;5892;43.412;24.612;2022-12-19T10:33:01;102403.31;;;3.12;100.00
11672;BME280;5892;43.412;24.612;2022-12-19T10:35:33;102364.59;;;2.91;100.00
11672;BME280;5892;43.412;24.612;2022-12-19T10:38:14;102400.81;;;3.04;100.00
11672;BME280;5892;43.412;24.612;2022-12-19T10:40:49;102397.06;;;3.05;100.00
11672;BME280;5892;43.412;24.612;2022-12-19T10:43:26;102343.38;;;2.82;100.00
11672;BME280;5892;43.412;24.612;2022-12-19T10:45:59;102351.47;;;3.02;100.00
11672;BME280;5892;43.412;24.612;2022-12-19T10:48:28;102388.25;;;3.42;99.75
11672;BME280;5892;43.412;24.612;2022-12-19T10:50:55;102376.13;;;3.51;99.18
11672;BME280;5892;43.412;24.612;2022-12-19T10:53:28;102310.78;;;3.15;97.66
11672;BME280;5892;43.412;24.612;2022-12-19T10:55:59;102376.31;;;3.56;98.07
11672;BME280;5892;43.412;24.612;2022-12-19T10:58:32;102376.50;;;3.61;98.09
11672;BME280;5892;43.412;24.612;2022-12-19T11:01:11;102380.09;;;3.55;97.52
11672;BME280;5892;43.412;24.612;2022-12-19T11:03:41;102374.50;;;3.37;97.56
11672;BME280;5892;43.412;24.612;2022-12-19T11:09:25;102378.31;;;3.23;99.42
11672;BME280;5892;43.412;24.612;2022-12-19T11:11:59;102359.53;;;3.28;99.29
11672;BME280;5892;43.412;24.612;2022-12-19T11:14:29;102327.91;;;3.02;99.34
11672;BME280;5892;43.412;24.612;2022-12-19T11:16:57;102365.84;;;3.09;99.69
11672;BME280;5892;43.412;24.612;2022-12-19T11:19:30;102338.97;;;2.94;100.00
11672;BME280;5892;43.412;24.612;2022-12-19T11:22:00;102372.06;;;3.16;100.00
11672;BME280;5892;43.412;24.612;2022-12-19T11:24:34;102371.47;;;2.94;100.00
11672;BME280;5892;43.412;24.612;2022-12-19T11:27:01;102367.91;;;3.07;100.00
11672;BME280;5892;43.412;24.612;2022-12-19T11:29:43;102358.16;;;2.86;100.00
11672;BME280;5892;43.412;24.612;2022-12-19T11:32:30;102374.19;;;2.74;100.00
11672;BME280;5892;43.412;24.612;2022-12-19T11:35:00;102372.09;;;2.76;100.00
11672;BME280;5892;43.412;24.612;2022-12-19T11:37:34;102369.41;;;2.76;100.00
11672;BME280;5892;43.412;24.612;2022-12-19T11:40:19;102368.78;;;2.87;100.00
11672;BME280;5892;43.412;24.612;2022-12-19T11:42:50;102371.06;;;2.77;100.00
11672;BME280;5892;43.412;24.612;2022-12-19T11:45:28;102371.69;;;2.66;100.00
11672;BME280;5892;43.412;24.612;2022-12-19T11:48:04;102370.03;;;2.65;100.00
11672;BME280;5892;43.412;24.612;2022-12-19T11:50:40;102368.56;;;2.69;100.00
11672;BME280;5892;43.412;24.612;2022-12-19T11:53:13;102371.28;;;2.69;100.00
11672;BME280;5892;43.412;24.612;2022-12-19T11:55:48;102344.19;;;2.69;100.00
11672;BME280;5892;43.412;24.612;2022-12-19T11:58:16;102366.47;;;2.84;100.00
11672;BME280;5892;43.412;24.612;2022-12-19T12:00:50;102340.44;;;2.70;100.00
11672;BME280;5892;43.412;24.612;2022-12-19T12:03:42;102350.22;;;2.78;100.00
11672;BME280;5892;43.412;24.612;2022-12-19T12:06:15;102361.25;;;2.83;100.00
11672;BME280;5892;43.412;24.612;2022-12-19T12:08:54;102371.47;;;2.81;100.00
11672;BME280;5892;43.412;24.612;2022-12-19T12:11:31;102364.81;;;2.77;100.00
11672;BME280;5892;43.412;24.612;2022-12-19T12:14:13;102360.03;;;2.59;100.00
11672;BME280;5892;43.412;24.612;2022-12-19T12:16:52;102380.03;;;2.71;100.00
11672;BME280;5892;43.412;24.612;2022-12-19T12:19:33;102370.84;;;2.59;100.00
11672;BME280;5892;43.412;24.612;2022-12-19T12:22:14;102370.44;;;2.55;100.00
11672;BME280;5892;43.412;24.612;2022-12-19T12:24:49;102384.38;;;2.46;100.00
11672;BME280;5892;43.412;24.612;2022-12-19T12:27:33;102378.97;;;2.46;100.00
11672;BME280;5892;43.412;24.612;2022-12-19T12:30:09;102348.31;;;2.12;100.00
11672;BME280;5892;43.412;24.612;2022-12-19T12:32:50;102380.59;;;2.34;100.00
11672;BME280;5892;43.412;24.612;2022-12-19T12:35:33;102389.13;;;2.31;100.00
11672;BME280;5892;43.412;24.612;2022-12-19T12:38:14;102357.44;;;2.05;100.00
11672;BME280;5892;43.412;24.612;2022-12-19T12:40:55;102339.34;;;1.99;100.00
11672;BME280;5892;43.412;24.612;2022-12-19T12:43:37;102388.28;;;2.24;100.00
11672;BME280;5892;43.412;24.612;2022-12-19T12:46:11;102393.72;;;2.30;100.00
11672;BME280;5892;43.412;24.612;2022-12-19T12:48:44;102381.63;;;2.20;100.00
11672;BME280;5892;43.412;24.612;2022-12-19T12:51:13;102381.00;;;2.18;100.00
11672;BME280;5892;43.412;24.612;2022-12-19T12:53:43;102372.44;;;2.21;100.00
11672;BME280;5892;43.412;24.612;2022-12-19T12:56:12;102369.13;;;2.19;100.00
11672;BME280;5892;43.412;24.612;2022-12-19T12:59:04;102350.59;;;2.16;100.00
11672;BME280;5892;43.412;24.612;2022-12-19T13:01:33;102370.81;;;2.26;100.00
11672;BME280;5892;43.412;24.612;2022-12-19T13:04:04;102367.03;;;2.21;100.00
11672;BME280;5892;43.412;24.612;2022-12-19T13:06:34;102374.31;;;2.20;100.00
11672;BME280;5892;43.412;24.612;2022-12-19T13:09:04;102369.31;;;2.10;100.00
11672;BME280;5892;43.412;24.612;2022-12-19T13:11:39;102376.84;;;2.22;100.00
11672;BME280;5892;43.412;24.612;2022-12-19T13:14:48;102381.63;;;2.33;100.00
11672;BME280;5892;43.412;24.612;2022-12-19T13:17:24;102335.38;;;1.95;100.00
11672;BME280;5892;43.412;24.612;2022-12-19T13:20:39;102381.63;;;2.26;100.00
11672;BME280;5892;43.412;24.612;2022-12-19T13:23:20;102356.00;;;2.09;100.00
11672;BME280;5892;43.412;24.612;2022-12-19T13:25:50;102371.22;;;2.23;100.00
11672;BME280;5892;43.412;24.612;2022-12-19T13:28:40;102355.41;;;2.13;100.00